Eyr Myken — LCQU — position and weather

sailwx.info

Track history (hours):
 
Tides and Currents Weather Stations Pressure Air Temp Water Temp Dewpoint Dewpoint Depression Visibility Wind Speed Wind Dir Waves Ship Positions

Eyr Myken

Last reported at 2015-Jan-26 12:21 UTC. Time now 2015-Jan-26 16:29 UTC.
Position N 66°35' E 013°10'.

Length 18 m; draft 1.5 m.

Type: Medical transport. MMSI: 257054000.

Date/timePositionNaut miles runAvg speedWind from/ knotsBaromVisibWave heightAir tempDewpointWater temp
2015-Jan-26 12:21N 66°35' E 013°10'0 0.2
2015-Jan-26 11:33N 66°35' E 013°10'5 2.6
2015-Jan-26 09:27N 66°34' E 012°57'  
2015-Jan-21 19:22N 66°25' E 012°46'5 2.7
2015-Jan-21 17:33N 66°21' E 012°41'21 0.7
2015-Jan-20 12:31N 66°38' E 013°08'5 0.2
2015-Jan-19 08:27N 66°36' E 012°58'4 0.2
2015-Jan-18 13:31N 66°37' E 012°48'3 2.4
2015-Jan-18 12:18N 66°36' E 012°41'911.7
2015-Jan-18 11:31N 66°27' E 012°48'13 6.7
2015-Jan-18 09:34N 66°18' E 012°24'1717.2
2015-Jan-18 08:34N 66°35' E 012°14'17 5.6
2015-Jan-18 05:34N 66°23' E 012°43'10 7.8
2015-Jan-18 04:14N 66°12' E 012°38'1624.0
2015-Jan-18 03:34N 66°26' E 012°16'  
Track history (hours):
 
Tides and Currents Weather Stations Pressure Air Temp Water Temp Dewpoint Dewpoint Depression Visibility Wind Speed Wind Dir Waves Ship Positions

Eyr Myken

Last reported at 2015-Jan-26 12:21 UTC. Time now 2015-Jan-26 16:29 UTC.
Position N 66°35' E 013°10'.

Length 18 m; draft 1.5 m.

Type: Medical transport. MMSI: 257054000.

Date/timePositionNaut miles runAvg speedWind from/ knotsBaromVisibWave heightAir tempDewpointWater temp
2015-Jan-26 12:21N 66°35' E 013°10'0 0.2
2015-Jan-26 11:33N 66°35' E 013°10'5 2.6
2015-Jan-26 09:27N 66°34' E 012°57'  
2015-Jan-21 19:22N 66°25' E 012°46'5 2.7
2015-Jan-21 17:33N 66°21' E 012°41'21 0.7
2015-Jan-20 12:31N 66°38' E 013°08'5 0.2
2015-Jan-19 08:27N 66°36' E 012°58'4 0.2
2015-Jan-18 13:31N 66°37' E 012°48'3 2.4
2015-Jan-18 12:18N 66°36' E 012°41'911.7
2015-Jan-18 11:31N 66°27' E 012°48'13 6.7
2015-Jan-18 09:34N 66°18' E 012°24'1717.2
2015-Jan-18 08:34N 66°35' E 012°14'17 5.6
2015-Jan-18 05:34N 66°23' E 012°43'10 7.8
2015-Jan-18 04:14N 66°12' E 012°38'1624.0
2015-Jan-18 03:34N 66°26' E 012°16'  

Dump ship's entire track history